Jarrettsville, MD (21084)

8:41 PM EST on November 26, 2014 (GMT -0500)
Jarrettsville | Change Station
CLOSE
Current Station
Personal Weather Station
Location: Jarrettsville, MD
Elevation: 627 ft
Nearby Weather Stations

Elev 627 ft 39.60 °N, 76.47 °W | Updated 9 seconds ago

Overcast
Overcast
32.0 °F
Feels Like 32 °F
N
0.0
Wind Variable Wind from NNE
Gusts 5.0 mph

Today
High -- | Low -- °F
--% Chance of Precip.
Yesterday
High -- | Low -- °F
Precip. -- in
7:02 AM 4:43 PM
Waxing Crescent, 24% visible
Pressure 29.93 in
Visibility 3.0 miles
Clouds Overcast 700 ft
Windchill 32 °F
Dew Point 32 °F
Humidity 98%
Rainfall 0.51 in
Snow Depth Not available.
UV 0 out of 12
Pollen .10 out of 12
Air Quality Not available.
Flu Activity Not available.
METAR KAPG 262350Z 32008KT 3SM -RA BR OVC007 02/02 A2993

More Conditions Fewer Conditions

Pressure 29.93 in
Visibility 3.0 miles
Clouds Overcast 700 ft
Windchill 32 °F
Dew Point 32 °F
Humidity 98%
Rainfall 0.51 in
Snow Depth Not available.
UV 0 out of 12
Pollen .10 out of 12
Air Quality Not available.
Flu Activity Not available.
METAR KAPG 262350Z 32008KT 3SM -RA BR OVC007 02/02 A2993

More Conditions Fewer Conditions

10-Day Weather Forecast

Almanac

Astronomy

Nov. 26, 2014 Rise Set
Actual Time
Civil Twilight
Nautical Twilight
Astronomical Twilight
Moon
Length of Visible Light
Length of Day
Tomorrow will be .
, % of the Moon is Illuminated

Today's Extremes

State Highs State Lows

Community

WunderPhotos

Upload Photos

1,773,940 photos uploaded!

WunderBlogs® & News

Nearby

Air Quality

  Air Quality AQ Index Pollutant
Not available.

Snow Depth

Station Depth Elevation

Earthquake Activity

City Distance Mag. Time & Date
Minimum magnitude displayed is 2.5.

Coastal Water Temperatures

Place Temperature

Nearby Weather Stations